sensor_id;sensor_type;location;lat;lon;timestamp;P1;durP1;ratioP1;P2;durP2;ratioP2
76157;SDS011;64907;51.574;6.502;2023-03-14T00:02:07;4.80;;;2.17;;
76157;SDS011;64907;51.574;6.502;2023-03-14T00:04:32;6.43;;;2.37;;
76157;SDS011;64907;51.574;6.502;2023-03-14T00:06:57;5.33;;;2.03;;
76157;SDS011;64907;51.574;6.502;2023-03-14T00:09:22;4.72;;;2.00;;
76157;SDS011;64907;51.574;6.502;2023-03-14T00:11:47;5.90;;;2.42;;
76157;SDS011;64907;51.574;6.502;2023-03-14T00:14:13;3.90;;;1.88;;
76157;SDS011;64907;51.574;6.502;2023-03-14T00:16:40;6.50;;;2.03;;
76157;SDS011;64907;51.574;6.502;2023-03-14T00:19:05;8.20;;;2.23;;
76157;SDS011;64907;51.574;6.502;2023-03-14T00:21:30;4.63;;;2.70;;
76157;SDS011;64907;51.574;6.502;2023-03-14T00:23:57;6.63;;;2.00;;
76157;SDS011;64907;51.574;6.502;2023-03-14T00:26:22;4.22;;;2.03;;
76157;SDS011;64907;51.574;6.502;2023-03-14T00:28:50;7.97;;;3.05;;
76157;SDS011;64907;51.574;6.502;2023-03-14T00:31:16;8.70;;;2.15;;
76157;SDS011;64907;51.574;6.502;2023-03-14T00:33:41;4.83;;;2.70;;
76157;SDS011;64907;51.574;6.502;2023-03-14T00:36:25;13.20;;;2.75;;
76157;SDS011;64907;51.574;6.502;2023-03-14T00:38:51;4.00;;;2.75;;
76157;SDS011;64907;51.574;6.502;2023-03-14T00:41:17;14.13;;;3.10;;
76157;SDS011;64907;51.574;6.502;2023-03-14T00:43:43;5.22;;;2.30;;
76157;SDS011;64907;51.574;6.502;2023-03-14T00:46:08;5.88;;;2.15;;
76157;SDS011;64907;51.574;6.502;2023-03-14T00:48:34;10.35;;;2.80;;
76157;SDS011;64907;51.574;6.502;2023-03-14T00:50:59;9.73;;;2.60;;
76157;SDS011;64907;51.574;6.502;2023-03-14T00:53:24;6.75;;;2.00;;
76157;SDS011;64907;51.574;6.502;2023-03-14T00:55:50;4.73;;;2.47;;
76157;SDS011;64907;51.574;6.502;2023-03-14T00:58:15;8.15;;;2.40;;
76157;SDS011;64907;51.574;6.502;2023-03-14T01:00:41;4.75;;;2.35;;
76157;SDS011;64907;51.574;6.502;2023-03-14T01:03:07;9.45;;;3.03;;
76157;SDS011;64907;51.574;6.502;2023-03-14T01:05:33;5.60;;;2.60;;
76157;SDS011;64907;51.574;6.502;2023-03-14T01:07:58;5.40;;;2.05;;
76157;SDS011;64907;51.574;6.502;2023-03-14T01:10:24;6.22;;;1.98;;
76157;SDS011;64907;51.574;6.502;2023-03-14T01:12:49;6.22;;;2.10;;
76157;SDS011;64907;51.574;6.502;2023-03-14T01:15:14;4.45;;;2.20;;
76157;SDS011;64907;51.574;6.502;2023-03-14T01:17:39;6.93;;;2.03;;
76157;SDS011;64907;51.574;6.502;2023-03-14T01:20:05;5.60;;;2.55;;
76157;SDS011;64907;51.574;6.502;2023-03-14T01:22:34;8.73;;;2.10;;
76157;SDS011;64907;51.574;6.502;2023-03-14T01:24:59;10.63;;;2.05;;
76157;SDS011;64907;51.574;6.502;2023-03-14T01:27:24;6.75;;;2.72;;
76157;SDS011;64907;51.574;6.502;2023-03-14T01:29:49;5.13;;;2.10;;
76157;SDS011;64907;51.574;6.502;2023-03-14T01:32:15;4.40;;;1.80;;
76157;SDS011;64907;51.574;6.502;2023-03-14T01:34:40;6.07;;;1.87;;
76157;SDS011;64907;51.574;6.502;2023-03-14T01:37:06;6.55;;;2.00;;
76157;SDS011;64907;51.574;6.502;2023-03-14T01:39:32;4.90;;;2.08;;
76157;SDS011;64907;51.574;6.502;2023-03-14T01:41:59;7.10;;;1.90;;
76157;SDS011;64907;51.574;6.502;2023-03-14T01:44:24;3.78;;;1.70;;
76157;SDS011;64907;51.574;6.502;2023-03-14T01:46:50;7.63;;;2.10;;
76157;SDS011;64907;51.574;6.502;2023-03-14T01:51:48;4.90;;;1.77;;
76157;SDS011;64907;51.574;6.502;2023-03-14T01:54:16;5.55;;;2.35;;
76157;SDS011;64907;51.574;6.502;2023-03-14T01:56:43;4.70;;;1.70;;
76157;SDS011;64907;51.574;6.502;2023-03-14T01:59:09;6.72;;;1.75;;
76157;SDS011;64907;51.574;6.502;2023-03-14T02:01:35;7.40;;;1.95;;
76157;SDS011;64907;51.574;6.502;2023-03-14T02:04:02;4.22;;;1.67;;
76157;SDS011;64907;51.574;6.502;2023-03-14T02:06:29;5.93;;;1.80;;
76157;SDS011;64907;51.574;6.502;2023-03-14T02:08:56;3.97;;;1.80;;
76157;SDS011;64907;51.574;6.502;2023-03-14T02:11:21;5.18;;;1.70;;
76157;SDS011;64907;51.574;6.502;2023-03-14T02:13:51;4.32;;;1.90;;
76157;SDS011;64907;51.574;6.502;2023-03-14T02:16:16;6.82;;;2.05;;
76157;SDS011;64907;51.574;6.502;2023-03-14T02:18:41;6.72;;;1.70;;
76157;SDS011;64907;51.574;6.502;2023-03-14T02:23:58;6.35;;;2.45;;
76157;SDS011;64907;51.574;6.502;2023-03-14T02:26:21;6.03;;;1.77;;
76157;SDS011;64907;51.574;6.502;2023-03-14T02:28:47;5.43;;;1.88;;
76157;SDS011;64907;51.574;6.502;2023-03-14T02:31:13;3.90;;;1.80;;
76157;SDS011;64907;51.574;6.502;2023-03-14T02:33:39;2.92;;;1.70;;
76157;SDS011;64907;51.574;6.502;2023-03-14T02:36:05;5.07;;;1.40;;
76157;SDS011;64907;51.574;6.502;2023-03-14T02:41:13;6.90;;;1.70;;
76157;SDS011;64907;51.574;6.502;2023-03-14T02:43:38;2.00;;;1.50;;
76157;SDS011;64907;51.574;6.502;2023-03-14T02:46:04;9.07;;;1.92;;
76157;SDS011;64907;51.574;6.502;2023-03-14T02:48:31;7.88;;;1.75;;
76157;SDS011;64907;51.574;6.502;2023-03-14T02:50:59;8.43;;;2.20;;
76157;SDS011;64907;51.574;6.502;2023-03-14T02:53:25;7.53;;;1.75;;
76157;SDS011;64907;51.574;6.502;2023-03-14T02:55:51;5.57;;;2.08;;
76157;SDS011;64907;51.574;6.502;2023-03-14T02:58:17;4.18;;;1.67;;
76157;SDS011;64907;51.574;6.502;2023-03-14T03:00:42;8.50;;;2.20;;
76157;SDS011;64907;51.574;6.502;2023-03-14T03:03:07;5.95;;;2.30;;
76157;SDS011;64907;51.574;6.502;2023-03-14T03:05:32;6.30;;;2.05;;
76157;SDS011;64907;51.574;6.502;2023-03-14T03:07:58;7.22;;;2.22;;
76157;SDS011;64907;51.574;6.502;2023-03-14T03:10:23;12.00;;;2.22;;
76157;SDS011;64907;51.574;6.502;2023-03-14T03:12:48;4.57;;;1.40;;
76157;SDS011;64907;51.574;6.502;2023-03-14T03:15:13;10.10;;;2.25;;
76157;SDS011;64907;51.574;6.502;2023-03-14T03:17:39;11.33;;;2.03;;
76157;SDS011;64907;51.574;6.502;2023-03-14T03:20:04;3.75;;;2.00;;
76157;SDS011;64907;51.574;6.502;2023-03-14T03:22:30;7.07;;;2.03;;
76157;SDS011;64907;51.574;6.502;2023-03-14T03:24:55;6.95;;;1.80;;
76157;SDS011;64907;51.574;6.502;2023-03-14T03:27:21;7.60;;;1.95;;
76157;SDS011;64907;51.574;6.502;2023-03-14T03:29:46;10.63;;;2.08;;
76157;SDS011;64907;51.574;6.502;2023-03-14T03:32:12;8.02;;;2.67;;
76157;SDS011;64907;51.574;6.502;2023-03-14T03:34:37;5.72;;;1.88;;
76157;SDS011;64907;51.574;6.502;2023-03-14T03:37:02;11.23;;;2.10;;
76157;SDS011;64907;51.574;6.502;2023-03-14T03:39:28;10.90;;;2.37;;
76157;SDS011;64907;51.574;6.502;2023-03-14T03:41:53;5.00;;;1.80;;
76157;SDS011;64907;51.574;6.502;2023-03-14T03:44:18;10.25;;;2.15;;
76157;SDS011;64907;51.574;6.502;2023-03-14T03:46:43;4.47;;;1.92;;
76157;SDS011;64907;51.574;6.502;2023-03-14T03:49:08;7.15;;;2.22;;
76157;SDS011;64907;51.574;6.502;2023-03-14T03:51:33;11.37;;;1.90;;
76157;SDS011;64907;51.574;6.502;2023-03-14T03:53:59;9.68;;;2.30;;
76157;SDS011;64907;51.574;6.502;2023-03-14T03:56:24;5.50;;;1.87;;
76157;SDS011;64907;51.574;6.502;2023-03-14T03:58:49;5.88;;;2.33;;
76157;SDS011;64907;51.574;6.502;2023-03-14T04:01:14;7.57;;;2.30;;
76157;SDS011;64907;51.574;6.502;2023-03-14T04:03:40;7.10;;;1.65;;
76157;SDS011;64907;51.574;6.502;2023-03-14T04:06:06;8.43;;;2.58;;
76157;SDS011;64907;51.574;6.502;2023-03-14T04:08:32;8.30;;;2.47;;
76157;SDS011;64907;51.574;6.502;2023-03-14T04:10:57;5.72;;;2.20;;
76157;SDS011;64907;51.574;6.502;2023-03-14T04:13:23;4.38;;;1.80;;
76157;SDS011;64907;51.574;6.502;2023-03-14T04:15:48;7.43;;;2.45;;
76157;SDS011;64907;51.574;6.502;2023-03-14T04:18:13;7.20;;;1.90;;
76157;SDS011;64907;51.574;6.502;2023-03-14T04:20:38;8.97;;;2.17;;
76157;SDS011;64907;51.574;6.502;2023-03-14T04:23:04;6.17;;;1.97;;
76157;SDS011;64907;51.574;6.502;2023-03-14T04:25:29;6.43;;;1.42;;
76157;SDS011;64907;51.574;6.502;2023-03-14T04:27:54;8.10;;;2.42;;
76157;SDS011;64907;51.574;6.502;2023-03-14T04:30:19;7.93;;;2.23;;
76157;SDS011;64907;51.574;6.502;2023-03-14T04:32:45;6.53;;;2.08;;
76157;SDS011;64907;51.574;6.502;2023-03-14T04:35:10;10.95;;;2.47;;
76157;SDS011;64907;51.574;6.502;2023-03-14T04:37:35;7.90;;;1.92;;
76157;SDS011;64907;51.574;6.502;2023-03-14T04:40:00;11.55;;;2.28;;
76157;SDS011;64907;51.574;6.502;2023-03-14T04:42:26;7.68;;;2.80;;
76157;SDS011;64907;51.574;6.502;2023-03-14T04:44:51;7.83;;;2.03;;
76157;SDS011;64907;51.574;6.502;2023-03-14T04:47:16;8.77;;;2.20;;
76157;SDS011;64907;51.574;6.502;2023-03-14T04:49:41;6.13;;;1.75;;
76157;SDS011;64907;51.574;6.502;2023-03-14T04:52:07;9.73;;;2.10;;
76157;SDS011;64907;51.574;6.502;2023-03-14T04:54:32;6.13;;;1.55;;
76157;SDS011;64907;51.574;6.502;2023-03-14T04:56:57;8.60;;;1.93;;
76157;SDS011;64907;51.574;6.502;2023-03-14T04:59:22;3.97;;;1.25;;
76157;SDS011;64907;51.574;6.502;2023-03-14T05:01:47;6.43;;;1.80;;
76157;SDS011;64907;51.574;6.502;2023-03-14T05:04:15;3.20;;;1.50;;
76157;SDS011;64907;51.574;6.502;2023-03-14T05:06:40;3.63;;;1.20;;
76157;SDS011;64907;51.574;6.502;2023-03-14T05:09:07;5.00;;;1.08;;
76157;SDS011;64907;51.574;6.502;2023-03-14T05:11:32;2.25;;;1.20;;
76157;SDS011;64907;51.574;6.502;2023-03-14T05:13:57;1.95;;;1.27;;
76157;SDS011;64907;51.574;6.502;2023-03-14T05:16:22;3.63;;;1.00;;
76157;SDS011;64907;51.574;6.502;2023-03-14T05:18:48;5.20;;;1.08;;
76157;SDS011;64907;51.574;6.502;2023-03-14T05:21:13;4.30;;;1.27;;
76157;SDS011;64907;51.574;6.502;2023-03-14T05:23:38;0.85;;;0.73;;
76157;SDS011;64907;51.574;6.502;2023-03-14T05:26:03;2.60;;;1.10;;
76157;SDS011;64907;51.574;6.502;2023-03-14T05:28:28;1.77;;;1.08;;
76157;SDS011;64907;51.574;6.502;2023-03-14T05:30:54;2.40;;;1.13;;
76157;SDS011;64907;51.574;6.502;2023-03-14T05:33:19;2.57;;;1.33;;
76157;SDS011;64907;51.574;6.502;2023-03-14T05:35:44;2.90;;;1.10;;
76157;SDS011;64907;51.574;6.502;2023-03-14T05:38:09;1.33;;;1.20;;
76157;SDS011;64907;51.574;6.502;2023-03-14T05:40:35;2.08;;;1.52;;
76157;SDS011;64907;51.574;6.502;2023-03-14T05:43:00;3.58;;;1.92;;
76157;SDS011;64907;51.574;6.502;2023-03-14T05:45:25;2.37;;;1.60;;
76157;SDS011;64907;51.574;6.502;2023-03-14T05:47:50;3.47;;;2.17;;
76157;SDS011;64907;51.574;6.502;2023-03-14T05:50:16;5.45;;;2.13;;
76157;SDS011;64907;51.574;6.502;2023-03-14T05:52:41;2.78;;;2.30;;
76157;SDS011;64907;51.574;6.502;2023-03-14T05:55:06;2.23;;;2.13;;
76157;SDS011;64907;51.574;6.502;2023-03-14T05:57:31;23.35;;;3.85;;
76157;SDS011;64907;51.574;6.502;2023-03-14T05:59:57;5.13;;;3.22;;
76157;SDS011;64907;51.574;6.502;2023-03-14T06:02:22;5.00;;;3.10;;
76157;SDS011;64907;51.574;6.502;2023-03-14T06:04:47;3.45;;;3.20;;
76157;SDS011;64907;51.574;6.502;2023-03-14T06:07:12;3.25;;;3.03;;
76157;SDS011;64907;51.574;6.502;2023-03-14T06:09:37;4.07;;;3.00;;
76157;SDS011;64907;51.574;6.502;2023-03-14T06:12:04;3.45;;;3.25;;
76157;SDS011;64907;51.574;6.502;2023-03-14T06:14:29;3.20;;;2.92;;
76157;SDS011;64907;51.574;6.502;2023-03-14T06:16:55;3.35;;;3.15;;
76157;SDS011;64907;51.574;6.502;2023-03-14T06:19:20;3.87;;;3.67;;
76157;SDS011;64907;51.574;6.502;2023-03-14T06:21:45;4.65;;;4.03;;
76157;SDS011;64907;51.574;6.502;2023-03-14T06:24:10;3.75;;;3.53;;
76157;SDS011;64907;51.574;6.502;2023-03-14T06:26:35;6.07;;;3.92;;
76157;SDS011;64907;51.574;6.502;2023-03-14T06:29:01;9.95;;;4.47;;
76157;SDS011;64907;51.574;6.502;2023-03-14T06:31:28;6.07;;;4.85;;
76157;SDS011;64907;51.574;6.502;2023-03-14T06:33:54;4.18;;;3.78;;
76157;SDS011;64907;51.574;6.502;2023-03-14T06:36:19;7.32;;;3.78;;
76157;SDS011;64907;51.574;6.502;2023-03-14T06:38:44;5.40;;;4.27;;
76157;SDS011;64907;51.574;6.502;2023-03-14T06:41:09;4.33;;;4.03;;
76157;SDS011;64907;51.574;6.502;2023-03-14T06:43:35;4.88;;;4.18;;
76157;SDS011;64907;51.574;6.502;2023-03-14T06:46:00;4.10;;;3.83;;
76157;SDS011;64907;51.574;6.502;2023-03-14T06:48:25;4.43;;;3.92;;
76157;SDS011;64907;51.574;6.502;2023-03-14T06:50:50;5.65;;;3.83;;
76157;SDS011;64907;51.574;6.502;2023-03-14T06:53:16;3.90;;;3.70;;
76157;SDS011;64907;51.574;6.502;2023-03-14T06:55:41;4.05;;;3.75;;
76157;SDS011;64907;51.574;6.502;2023-03-14T06:58:08;4.28;;;3.90;;
76157;SDS011;64907;51.574;6.502;2023-03-14T07:00:33;3.55;;;3.25;;
76157;SDS011;64907;51.574;6.502;2023-03-14T07:02:58;5.07;;;3.20;;
76157;SDS011;64907;51.574;6.502;2023-03-14T07:05:24;5.35;;;2.50;;
76157;SDS011;64907;51.574;6.502;2023-03-14T07:07:49;6.33;;;3.17;;
76157;SDS011;64907;51.574;6.502;2023-03-14T07:10:14;4.87;;;3.87;;
76157;SDS011;64907;51.574;6.502;2023-03-14T07:12:39;2.78;;;2.60;;
76157;SDS011;64907;51.574;6.502;2023-03-14T07:15:05;3.77;;;3.40;;
76157;SDS011;64907;51.574;6.502;2023-03-14T07:17:30;2.60;;;2.50;;
76157;SDS011;64907;51.574;6.502;2023-03-14T07:19:55;2.50;;;2.40;;
76157;SDS011;64907;51.574;6.502;2023-03-14T07:22:20;2.63;;;2.40;;
76157;SDS011;64907;51.574;6.502;2023-03-14T07:24:45;4.57;;;2.40;;
76157;SDS011;64907;51.574;6.502;2023-03-14T07:27:10;2.80;;;2.53;;
76157;SDS011;64907;51.574;6.502;2023-03-14T07:29:36;2.85;;;2.70;;
76157;SDS011;64907;51.574;6.502;2023-03-14T07:32:01;3.03;;;2.83;;
76157;SDS011;64907;51.574;6.502;2023-03-14T07:34:27;3.20;;;2.40;;
76157;SDS011;64907;51.574;6.502;2023-03-14T07:36:52;2.60;;;2.40;;
76157;SDS011;64907;51.574;6.502;2023-03-14T07:39:17;3.72;;;2.60;;
76157;SDS011;64907;51.574;6.502;2023-03-14T07:41:42;2.43;;;2.23;;
76157;SDS011;64907;51.574;6.502;2023-03-14T07:44:07;3.20;;;2.47;;
76157;SDS011;64907;51.574;6.502;2023-03-14T07:46:33;2.42;;;2.22;;
76157;SDS011;64907;51.574;6.502;2023-03-14T07:48:58;2.50;;;2.40;;
76157;SDS011;64907;51.574;6.502;2023-03-14T07:51:25;2.40;;;2.27;;
76157;SDS011;64907;51.574;6.502;2023-03-14T07:53:50;2.85;;;2.70;;
76157;SDS011;64907;51.574;6.502;2023-03-14T07:56:15;2.10;;;2.00;;
76157;SDS011;64907;51.574;6.502;2023-03-14T07:58:40;2.27;;;2.27;;
76157;SDS011;64907;51.574;6.502;2023-03-14T08:01:06;2.07;;;1.87;;
76157;SDS011;64907;51.574;6.502;2023-03-14T08:03:31;2.17;;;2.00;;
76157;SDS011;64907;51.574;6.502;2023-03-14T08:05:56;2.22;;;2.13;;
76157;SDS011;64907;51.574;6.502;2023-03-14T08:08:21;2.92;;;2.40;;
76157;SDS011;64907;51.574;6.502;2023-03-14T08:10:47;2.40;;;2.30;;
76157;SDS011;64907;51.574;6.502;2023-03-14T08:13:12;2.60;;;2.40;;
76157;SDS011;64907;51.574;6.502;2023-03-14T08:15:37;3.38;;;2.83;;
76157;SDS011;64907;51.574;6.502;2023-03-14T08:18:03;2.45;;;2.30;;
76157;SDS011;64907;51.574;6.502;2023-03-14T08:20:28;3.28;;;2.30;;
76157;SDS011;64907;51.574;6.502;2023-03-14T08:22:55;2.72;;;2.63;;
76157;SDS011;64907;51.574;6.502;2023-03-14T08:25:20;3.85;;;3.05;;
76157;SDS011;64907;51.574;6.502;2023-03-14T08:27:45;2.17;;;2.07;;
76157;SDS011;64907;51.574;6.502;2023-03-14T08:30:11;2.47;;;2.37;;
76157;SDS011;64907;51.574;6.502;2023-03-14T08:32:37;2.40;;;2.30;;
76157;SDS011;64907;51.574;6.502;2023-03-14T08:35:02;3.47;;;2.80;;
76157;SDS011;64907;51.574;6.502;2023-03-14T08:37:27;2.95;;;2.75;;
76157;SDS011;64907;51.574;6.502;2023-03-14T08:39:53;5.63;;;3.45;;
76157;SDS011;64907;51.574;6.502;2023-03-14T08:42:18;2.85;;;2.72;;
76157;SDS011;64907;51.574;6.502;2023-03-14T08:44:44;0.90;;;0.90;;
76157;SDS011;64907;51.574;6.502;2023-03-14T08:47:09;1.20;;;0.68;;
76157;SDS011;64907;51.574;6.502;2023-03-14T08:49:34;0.80;;;0.80;;
76157;SDS011;64907;51.574;6.502;2023-03-14T08:52:01;0.98;;;0.77;;
76157;SDS011;64907;51.574;6.502;2023-03-14T08:54:26;0.70;;;0.70;;
76157;SDS011;64907;51.574;6.502;2023-03-14T08:56:51;1.85;;;1.00;;
76157;SDS011;64907;51.574;6.502;2023-03-14T08:59:17;0.60;;;0.60;;
76157;SDS011;64907;51.574;6.502;2023-03-14T09:01:43;0.52;;;0.52;;
76157;SDS011;64907;51.574;6.502;2023-03-14T09:04:08;1.10;;;0.60;;
76157;SDS011;64907;51.574;6.502;2023-03-14T09:06:34;2.20;;;0.73;;
76157;SDS011;64907;51.574;6.502;2023-03-14T09:09:00;1.30;;;0.70;;
76157;SDS011;64907;51.574;6.502;2023-03-14T09:11:26;2.95;;;1.42;;
76157;SDS011;64907;51.574;6.502;2023-03-14T09:13:51;1.00;;;1.00;;
76157;SDS011;64907;51.574;6.502;2023-03-14T09:16:16;1.00;;;1.00;;
76157;SDS011;64907;51.574;6.502;2023-03-14T09:18:41;1.40;;;1.40;;
76157;SDS011;64907;51.574;6.502;2023-03-14T09:21:07;3.50;;;1.80;;
76157;SDS011;64907;51.574;6.502;2023-03-14T09:23:32;2.08;;;1.92;;
76157;SDS011;64907;51.574;6.502;2023-03-14T09:25:58;2.42;;;2.22;;
76157;SDS011;64907;51.574;6.502;2023-03-14T09:28:23;2.30;;;2.20;;
76157;SDS011;64907;51.574;6.502;2023-03-14T09:30:49;3.00;;;2.80;;
76157;SDS011;64907;51.574;6.502;2023-03-14T09:33:14;2.55;;;2.35;;
76157;SDS011;64907;51.574;6.502;2023-03-14T09:35:40;2.67;;;2.47;;
76157;SDS011;64907;51.574;6.502;2023-03-14T09:38:05;2.60;;;2.33;;
76157;SDS011;64907;51.574;6.502;2023-03-14T09:40:31;2.42;;;2.28;;
76157;SDS011;64907;51.574;6.502;2023-03-14T09:42:58;2.33;;;2.22;;
76157;SDS011;64907;51.574;6.502;2023-03-14T09:47:55;1.77;;;1.67;;
76157;SDS011;64907;51.574;6.502;2023-03-14T09:50:21;1.50;;;1.50;;
76157;SDS011;64907;51.574;6.502;2023-03-14T09:52:48;1.60;;;1.52;;
76157;SDS011;64907;51.574;6.502;2023-03-14T09:55:15;1.20;;;1.20;;
76157;SDS011;64907;51.574;6.502;2023-03-14T09:57:42;1.55;;;1.20;;
76157;SDS011;64907;51.574;6.502;2023-03-14T10:02:38;1.83;;;1.45;;
76157;SDS011;64907;51.574;6.502;2023-03-14T10:05:07;1.27;;;1.27;;
76157;SDS011;64907;51.574;6.502;2023-03-14T10:07:33;1.95;;;0.80;;
76157;SDS011;64907;51.574;6.502;2023-03-14T10:09:58;2.03;;;1.17;;
76157;SDS011;64907;51.574;6.502;2023-03-14T10:12:31;1.33;;;1.05;;
76157;SDS011;64907;51.574;6.502;2023-03-14T10:14:57;2.17;;;0.80;;
76157;SDS011;64907;51.574;6.502;2023-03-14T10:17:26;4.63;;;1.05;;
76157;SDS011;64907;51.574;6.502;2023-03-14T10:19:57;3.90;;;1.15;;
76157;SDS011;64907;51.574;6.502;2023-03-14T10:22:25;3.33;;;0.90;;
76157;SDS011;64907;51.574;6.502;2023-03-14T10:24:53;3.58;;;1.08;;
76157;SDS011;64907;51.574;6.502;2023-03-14T10:27:26;2.15;;;0.88;;
76157;SDS011;64907;51.574;6.502;2023-03-14T10:32:20;3.35;;;1.67;;
76157;SDS011;64907;51.574;6.502;2023-03-14T10:34:45;4.50;;;1.15;;
76157;SDS011;64907;51.574;6.502;2023-03-14T10:37:28;1.42;;;1.05;;
76157;SDS011;64907;51.574;6.502;2023-03-14T10:39:54;1.10;;;0.82;;
76157;SDS011;64907;51.574;6.502;2023-03-14T10:42:27;3.03;;;1.17;;
76157;SDS011;64907;51.574;6.502;2023-03-14T10:45:00;1.02;;;0.60;;
76157;SDS011;64907;51.574;6.502;2023-03-14T10:47:26;1.90;;;0.93;;
76157;SDS011;64907;51.574;6.502;2023-03-14T10:49:53;2.58;;;0.93;;
76157;SDS011;64907;51.574;6.502;2023-03-14T10:52:23;3.05;;;0.77;;
76157;SDS011;64907;51.574;6.502;2023-03-14T10:54:49;1.20;;;1.10;;
76157;SDS011;64907;51.574;6.502;2023-03-14T10:57:19;1.10;;;1.10;;
76157;SDS011;64907;51.574;6.502;2023-03-14T10:59:45;4.20;;;1.02;;
76157;SDS011;64907;51.574;6.502;2023-03-14T11:02:14;0.85;;;0.80;;
76157;SDS011;64907;51.574;6.502;2023-03-14T11:04:49;2.55;;;0.75;;
76157;SDS011;64907;51.574;6.502;2023-03-14T11:07:32;1.10;;;0.98;;
76157;SDS011;64907;51.574;6.502;2023-03-14T11:10:21;0.85;;;0.73;;
76157;SDS011;64907;51.574;6.502;2023-03-14T11:13:08;4.75;;;0.88;;
76157;SDS011;64907;51.574;6.502;2023-03-14T11:15:41;1.80;;;0.82;;
76157;SDS011;64907;51.574;6.502;2023-03-14T11:18:21;1.23;;;0.82;;
76157;SDS011;64907;51.574;6.502;2023-03-14T11:20:55;5.13;;;1.20;;
76157;SDS011;64907;51.574;6.502;2023-03-14T11:23:47;4.22;;;1.40;;
76157;SDS011;64907;51.574;6.502;2023-03-14T11:28:47;2.30;;;1.35;;
76157;SDS011;64907;51.574;6.502;2023-03-14T11:33:55;6.78;;;1.80;;
76157;SDS011;64907;51.574;6.502;2023-03-14T11:36:23;5.50;;;1.02;;
76157;SDS011;64907;51.574;6.502;2023-03-14T11:38:52;3.72;;;1.65;;
76157;SDS011;64907;51.574;6.502;2023-03-14T11:41:28;5.10;;;1.42;;
76157;SDS011;64907;51.574;6.502;2023-03-14T11:43:55;4.57;;;1.30;;
76157;SDS011;64907;51.574;6.502;2023-03-14T11:46:23;9.82;;;1.48;;
76157;SDS011;64907;51.574;6.502;2023-03-14T11:48:58;6.97;;;1.55;;
76157;SDS011;64907;51.574;6.502;2023-03-14T11:51:25;6.35;;;1.77;;
76157;SDS011;64907;51.574;6.502;2023-03-14T11:56:46;7.53;;;1.77;;
76157;SDS011;64907;51.574;6.502;2023-03-14T11:59:15;6.80;;;1.98;;
76157;SDS011;64907;51.574;6.502;2023-03-14T12:01:54;5.05;;;1.50;;
76157;SDS011;64907;51.574;6.502;2023-03-14T12:04:26;3.22;;;1.48;;
76157;SDS011;64907;51.574;6.502;2023-03-14T12:06:54;9.93;;;2.25;;
76157;SDS011;64907;51.574;6.502;2023-03-14T12:09:21;11.68;;;2.20;;
76157;SDS011;64907;51.574;6.502;2023-03-14T12:11:48;13.10;;;2.40;;
76157;SDS011;64907;51.574;6.502;2023-03-14T12:14:25;11.90;;;2.65;;
76157;SDS011;64907;51.574;6.502;2023-03-14T12:16:55;13.95;;;2.42;;
76157;SDS011;64907;51.574;6.502;2023-03-14T12:24:19;15.20;;;2.97;;
76157;SDS011;64907;51.574;6.502;2023-03-14T12:26:49;15.55;;;2.50;;
76157;SDS011;64907;51.574;6.502;2023-03-14T12:29:15;8.20;;;2.22;;
76157;SDS011;64907;51.574;6.502;2023-03-14T12:31:45;8.82;;;2.63;;
76157;SDS011;64907;51.574;6.502;2023-03-14T12:41:53;11.52;;;3.55;;
76157;SDS011;64907;51.574;6.502;2023-03-14T12:46:54;14.48;;;2.80;;
76157;SDS011;64907;51.574;6.502;2023-03-14T12:49:21;14.93;;;3.42;;
76157;SDS011;64907;51.574;6.502;2023-03-14T12:51:58;22.35;;;3.92;;
76157;SDS011;64907;51.574;6.502;2023-03-14T12:54:29;13.18;;;2.70;;
76157;SDS011;64907;51.574;6.502;2023-03-14T12:59:57;13.35;;;2.75;;
76157;SDS011;64907;51.574;6.502;2023-03-14T13:04:49;21.70;;;3.30;;
76157;SDS011;64907;51.574;6.502;2023-03-14T13:09:54;16.25;;;2.88;;
76157;SDS011;64907;51.574;6.502;2023-03-14T13:17:42;18.38;;;3.42;;
76157;SDS011;64907;51.574;6.502;2023-03-14T13:20:18;17.58;;;3.78;;
76157;SDS011;64907;51.574;6.502;2023-03-14T13:22:47;16.90;;;3.22;;
76157;SDS011;64907;51.574;6.502;2023-03-14T13:25:12;12.25;;;2.75;;
76157;SDS011;64907;51.574;6.502;2023-03-14T13:27:37;12.80;;;2.70;;
76157;SDS011;64907;51.574;6.502;2023-03-14T13:30:13;13.35;;;3.15;;
76157;SDS011;64907;51.574;6.502;2023-03-14T13:32:41;12.10;;;2.20;;
76157;SDS011;64907;51.574;6.502;2023-03-14T13:35:14;13.20;;;2.95;;
76157;SDS011;64907;51.574;6.502;2023-03-14T13:37:39;11.98;;;2.05;;
76157;SDS011;64907;51.574;6.502;2023-03-14T13:40:04;10.80;;;1.85;;
76157;SDS011;64907;51.574;6.502;2023-03-14T13:42:30;5.22;;;1.73;;
76157;SDS011;64907;51.574;6.502;2023-03-14T13:44:56;7.57;;;1.77;;
76157;SDS011;64907;51.574;6.502;2023-03-14T13:47:22;8.07;;;1.77;;
76157;SDS011;64907;51.574;6.502;2023-03-14T13:49:48;6.43;;;1.65;;
76157;SDS011;64907;51.574;6.502;2023-03-14T13:52:35;4.00;;;1.63;;
76157;SDS011;64907;51.574;6.502;2023-03-14T13:55:04;10.57;;;2.22;;
76157;SDS011;64907;51.574;6.502;2023-03-14T13:57:46;6.82;;;1.92;;
76157;SDS011;64907;51.574;6.502;2023-03-14T14:00:45;10.77;;;1.80;;
76157;SDS011;64907;51.574;6.502;2023-03-14T14:03:03;4.63;;;1.98;;
76157;SDS011;64907;51.574;6.502;2023-03-14T14:05:29;8.67;;;1.70;;
76157;SDS011;64907;51.574;6.502;2023-03-14T14:07:54;5.90;;;2.00;;
76157;SDS011;64907;51.574;6.502;2023-03-14T14:10:20;5.53;;;1.80;;
76157;SDS011;64907;51.574;6.502;2023-03-14T14:12:50;8.57;;;1.77;;
76157;SDS011;64907;51.574;6.502;2023-03-14T14:15:21;11.95;;;1.67;;
76157;SDS011;64907;51.574;6.502;2023-03-14T14:20:19;9.05;;;1.60;;
76157;SDS011;64907;51.574;6.502;2023-03-14T14:22:45;4.32;;;1.60;;
76157;SDS011;64907;51.574;6.502;2023-03-14T14:25:14;8.95;;;2.40;;
76157;SDS011;64907;51.574;6.502;2023-03-14T14:27:42;7.03;;;1.63;;
76157;SDS011;64907;51.574;6.502;2023-03-14T14:30:24;7.43;;;1.80;;
76157;SDS011;64907;51.574;6.502;2023-03-14T14:32:50;4.43;;;1.55;;
76157;SDS011;64907;51.574;6.502;2023-03-14T14:37:47;8.32;;;2.25;;
76157;SDS011;64907;51.574;6.502;2023-03-14T14:40:20;11.60;;;2.33;;
76157;SDS011;64907;51.574;6.502;2023-03-14T14:42:46;4.80;;;2.33;;
76157;SDS011;64907;51.574;6.502;2023-03-14T14:45:13;4.93;;;1.48;;
76157;SDS011;64907;51.574;6.502;2023-03-14T14:47:47;6.18;;;1.88;;
76157;SDS011;64907;51.574;6.502;2023-03-14T14:52:59;3.90;;;1.45;;
76157;SDS011;64907;51.574;6.502;2023-03-14T14:55:28;5.85;;;1.73;;
76157;SDS011;64907;51.574;6.502;2023-03-14T14:57:54;4.90;;;1.38;;
76157;SDS011;64907;51.574;6.502;2023-03-14T15:00:22;5.20;;;1.45;;
76157;SDS011;64907;51.574;6.502;2023-03-14T15:02:51;3.42;;;1.45;;
76157;SDS011;64907;51.574;6.502;2023-03-14T15:07:42;4.40;;;1.70;;
76157;SDS011;64907;51.574;6.502;2023-03-14T15:10:11;6.57;;;1.35;;
76157;SDS011;64907;51.574;6.502;2023-03-14T15:12:37;4.90;;;1.60;;
76157;SDS011;64907;51.574;6.502;2023-03-14T15:15:02;8.85;;;2.17;;
76157;SDS011;64907;51.574;6.502;2023-03-14T15:17:27;10.90;;;1.52;;
76157;SDS011;64907;51.574;6.502;2023-03-14T15:19:53;4.53;;;1.48;;
76157;SDS011;64907;51.574;6.502;2023-03-14T15:22:20;4.25;;;1.45;;
76157;SDS011;64907;51.574;6.502;2023-03-14T15:24:45;4.20;;;1.48;;
76157;SDS011;64907;51.574;6.502;2023-03-14T15:27:14;4.63;;;1.45;;
76157;SDS011;64907;51.574;6.502;2023-03-14T15:29:40;6.40;;;1.80;;
76157;SDS011;64907;51.574;6.502;2023-03-14T15:32:06;4.10;;;1.70;;
76157;SDS011;64907;51.574;6.502;2023-03-14T15:34:31;4.10;;;1.65;;
76157;SDS011;64907;51.574;6.502;2023-03-14T15:36:57;7.40;;;1.70;;
76157;SDS011;64907;51.574;6.502;2023-03-14T15:39:22;6.00;;;1.55;;
76157;SDS011;64907;51.574;6.502;2023-03-14T15:41:47;7.20;;;1.73;;
76157;SDS011;64907;51.574;6.502;2023-03-14T15:44:12;1.63;;;1.10;;
76157;SDS011;64907;51.574;6.502;2023-03-14T15:46:38;6.95;;;1.63;;